Decoded Metar for KLUL (LAUREL in MS, USA) (IATA:LUL) | Meteo·Mobile Aviation Weather
aviador You're here:

KLUL Decoded Metar

LAUREL in MS, USA
Report Time2019-03-19 18:35:00
UTC Time2019-03-19 18:48:07
Flight Rules vfr VFR
Wind020° at 11 Gusting to 14 kt
W.Decomp.*RWY 31: 3.8 kt HW 10.3 kt RCW
W.Rank020° ranks 18
Current wind is above 020° avg. (6.1)
Visibility9999 m
Phenomena:N/A
Clouds:N/A
Expected CloudBase > 8,800 ft AGL from Temp-Dew spread
CeilingNone
Temp16°C (ISA +2)
Dew Point-6°C (22% RH)
AAT9.4°C
QNH1026 hPa
Density Alt108 ft
Elevation299 ft
Report Wrong Elevation
Raw Report
KLUL 191835Z AUTO 02011G14KT 10SM CLR 16/M06 A3030 RMK A02
T01591061=

Extra information for KLUL:More info

Metar Taf Metar & Taf Last 4 Metars F.Rules Stats Wind Profile Meteogram Temp Stats Airport Information Weather charts Add Link Nearby VenuesMetar ALERT Operation Metar Decoded Social comments

AIRNAV info for KLUL